Motley, Alabama
Current Conditions -  °F | °C
As of 12:15 AM on Wednesday 28 Jan 2015 (Local Time) from KLGC Reporting Station
Clear Clear  
Wind Chill: 36°   Ceiling: Unl
Heat Index: 40°   Visibility: 10mi
Dew Point: 33°   Wind: 6mph
Humidity: 74%   Direction: 340°NNW
Pressure: 30.14"   Gusts: NA
Location:  33.1661°N, 85.5111°W
Report Text: KLGC 280615Z AUTO 34005KT 10SM CLR 05/00 A3014 RMK AO2 T00460003
Loading
Personal Weather Stations






























Interactive Weather Map New forecast layout! Learn more

10-Day Weather Forecast

Advertisements
Track Severe Weather on mobile